Blue Mound, Texas
Current Conditions -  °F | °C
As of 10:53 PM on Saturday 25 Oct 2014 (Local Time) from KAFW Reporting Station
Clear Clear  
Wind Chill: 71°   Ceiling: Unl
Heat Index: 71°   Visibility: 10mi
Dew Point: 60°   Wind: 6mph
Humidity: 68%   Direction: 180°S
Pressure: 30.04"   Gusts: NA
Location:  32.9103°N, 97.3722°W
Report Text: KAFW 260353Z 18005KT 10SM CLR 22/16 A3004 RMK AO2 SLP162 T02170156 $
Loading
Personal Weather Stations






























Interactive Weather Map
Tropical Storm Tracking
New forecast layout! Learn more

10-Day Weather Forecast

Advertisements
Track Severe Weather on mobile